Time;durP1;ratioP1;P1;durP2;ratioP2;P2;SDS_P1;SDS_P2;PMS_P1;PMS_P2;Temp;Humidity;BMP_temperature;BMP_pressure;BME280_temperature;BME280_humidity;BME280_pressure;Samples;Min_cycle;Max_cycle;Signal;HPM_P1;HPM_P2
2022/09/30 00:01:26;;;;;;;10.07;5.70;;;;;;;-141.97;71.17;47557.53;5014705;28;20167;-83
2022/09/30 00:03:53;;;;;;;8.37;5.80;;;;;;;-141.97;71.71;47465.25;5014598;28;20159;-84
2022/09/30 00:06:19;;;;;;;7.23;5.60;;;;;;;-141.97;71.79;47536.38;5016379;28;20171;-84
2022/09/30 00:08:45;;;;;;;11.60;6.20;;;;;;;-141.97;72.09;47690.16;4998216;28;20175;-83
2022/09/30 00:11:18;;;;;;;7.10;5.73;;;;;;;-141.97;72.47;47536.38;5019143;28;20277;-82
2022/09/30 00:13:45;;;;;;;8.57;5.70;;;;;;;-141.97;72.30;47417.22;5018223;28;20162;-81
2022/09/30 00:16:12;;;;;;;8.03;5.50;;;;;;;-141.97;72.33;47538.28;5017244;28;20259;-85
2022/09/30 00:18:39;;;;;;;7.47;5.50;;;;;;;-141.97;72.33;47538.28;5014642;28;20265;-86
2022/09/30 00:21:05;;;;;;;8.03;5.77;;;;;;;-141.97;72.06;47672.84;5014219;28;20194;-85
2022/09/30 00:23:31;;;;;;;7.03;5.73;;;;;;;-141.97;72.07;47403.75;5015652;28;20178;-85
2022/09/30 00:25:58;;;;;;;8.73;6.00;;;;;;;-141.97;73.00;47432.59;5014321;28;20581;-85
2022/09/30 00:28:24;;;;;;;9.37;6.33;;;;;;;-141.97;72.90;47538.28;5012624;28;20645;-86
2022/09/30 00:30:49;;;;;;;9.27;6.13;;;;;;;-141.97;72.73;47307.66;5014464;28;20217;-85
2022/09/30 00:33:15;;;;;;;8.20;5.93;;;;;;;-141.97;72.69;47351.88;4993888;28;20232;-85
2022/09/30 00:35:40;;;;;;;10.97;6.13;;;;;;;-141.97;73.26;47638.25;4994140;28;20172;-86
2022/09/30 00:38:06;;;;;;;7.67;5.97;;;;;;;-141.97;73.33;47670.91;5015379;28;20209;-86
2022/09/30 00:40:31;;;;;;;7.17;5.70;;;;;;;-141.97;73.35;47549.84;5014187;28;20166;-86
2022/09/30 00:42:59;;;;;;;8.07;6.10;;;;;;;-141.97;73.10;47544.06;5014242;28;20590;-86
2022/09/30 00:45:26;;;;;;;8.10;5.90;;;;;;;-141.97;73.21;47742.03;5014407;28;20158;-86
2022/09/30 00:48:11;;;;;;;9.80;6.13;;;;;;;-141.97;72.78;47544.06;5015782;28;20252;-85
2022/09/30 00:50:45;;;;;;;8.30;6.20;;;;;;;-141.97;73.36;47469.09;5015220;28;20527;-85
2022/09/30 00:53:17;;;;;;;9.60;6.00;;;;;;;-141.97;73.65;47542.16;5006872;28;20269;-86
2022/09/30 00:56:01;;;;;;;10.27;6.17;;;;;;;-141.97;73.12;47538.28;5014555;28;20166;-86
2022/09/30 00:58:35;;;;;;;10.33;6.20;;;;;;;-141.97;73.93;47711.28;5011271;28;20179;-85
2022/09/30 01:01:01;;;;;;;9.73;6.30;;;;;;;-141.97;73.79;47488.31;5014754;28;20277;-85
2022/09/30 01:03:42;;;;;;;10.07;6.03;;;;;;;-141.97;73.69;47557.53;5015897;28;20191;-86
2022/09/30 01:06:07;;;;;;;10.70;6.80;;;;;;;-141.97;74.00;47597.88;5007768;28;20209;-86
2022/09/30 01:08:37;;;;;;;10.07;7.00;;;;;;;-141.97;74.40;47538.28;5014900;28;20675;-86
2022/09/30 01:11:02;;;;;;;10.17;6.57;;;;;;;-141.97;74.18;47398.00;5015335;28;20174;-86
2022/09/30 01:13:32;;;;;;;7.67;6.30;;;;;;;-141.97;75.17;47553.69;5015675;28;20508;-86
2022/09/30 01:16:15;;;;;;;8.83;6.63;;;;;;;-141.97;75.18;47538.28;5015378;28;20205;-86
2022/09/30 01:19:08;;;;;;;9.57;6.87;;;;;;;-141.97;76.27;47567.13;5031930;28;20178;-87
2022/09/30 01:21:55;;;;;;;10.50;6.87;;;;;;;-141.97;76.17;47519.06;5034832;28;20174;-86
2022/09/30 01:24:46;;;;;;;11.67;6.97;;;;;;;-141.97;76.11;47561.38;5034494;28;20170;-86
2022/09/30 01:27:33;;;;;;;11.73;6.53;;;;;;;-141.97;76.79;47538.28;5034018;28;20204;-86
2022/09/30 01:30:09;;;;;;;10.30;6.63;;;;;;;-141.97;77.23;47567.13;5034019;28;20181;-85
2022/09/30 01:33:03;;;;;;;8.73;6.77;;;;;;;-141.97;78.02;47534.44;5034172;28;20688;-85
2022/09/30 01:35:41;;;;;;;9.03;6.67;;;;;;;-141.97;78.19;47567.13;4934491;29;20204;-85
2022/09/30 01:38:25;;;;;;;10.60;6.60;;;;;;;-141.97;77.78;47492.16;4934915;29;20208;-85
2022/09/30 01:41:06;;;;;;;10.57;6.73;;;;;;;-141.97;77.25;47547.91;4934631;29;20592;-85
2022/09/30 01:43:56;;;;;;;8.70;6.20;;;;;;;-141.97;77.32;47561.38;4933505;29;20182;-86
2022/09/30 01:46:35;;;;;;;10.80;6.70;;;;;;;-141.97;77.38;47570.97;4933911;29;20658;-86
2022/09/30 01:49:09;;;;;;;9.10;6.63;;;;;;;-141.97;76.86;47476.78;4934056;29;20635;-85
2022/09/30 01:51:50;;;;;;;9.97;6.97;;;;;;;-141.97;76.33;47565.22;4934334;29;20223;-85
2022/09/30 01:54:42;;;;;;;10.00;6.93;;;;;;;-141.97;76.26;47557.53;4934110;29;20193;-85
2022/09/30 01:57:30;;;;;;;10.83;7.60;;;;;;;-141.97;76.40;47469.09;4933878;29;20313;-86
2022/09/30 02:00:07;;;;;;;17.77;9.33;;;;;;;-141.97;76.08;47619.03;4933764;29;20726;-85
2022/09/30 02:02:40;;;;;;;13.37;9.30;;;;;;;-141.97;76.23;47513.31;4933915;29;20260;-86
2022/09/30 02:05:14;;;;;;;12.70;7.63;;;;;;;-141.97;76.04;47586.34;4934024;29;20169;-85
2022/09/30 02:07:45;;;;;;;12.67;7.40;;;;;;;-141.97;75.91;47553.69;4933697;29;20189;-86
2022/09/30 02:10:17;;;;;;;13.17;7.07;;;;;;;-141.97;75.85;47559.44;4934142;29;20170;-86
2022/09/30 02:12:51;;;;;;;12.10;8.10;;;;;;;-141.97;75.93;47499.84;4977115;28;20190;-87
2022/09/30 02:15:22;;;;;;;9.33;8.00;;;;;;;-141.97;75.69;47542.16;5014920;28;20208;-87
2022/09/30 02:18:02;;;;;;;13.60;8.17;;;;;;;-141.97;75.84;47553.69;5032762;28;20221;-86
2022/09/30 02:20:36;;;;;;;13.87;9.07;;;;;;;-141.97;75.60;47734.34;5032789;28;20203;-86
2022/09/30 02:23:08;;;;;;;12.93;7.67;;;;;;;-141.97;75.36;47695.91;5032550;28;20200;-86
2022/09/30 02:26:06;;;;;;;12.40;7.30;;;;;;;-141.97;74.98;47570.97;5032828;28;20162;-86
2022/09/30 02:28:38;;;;;;;10.03;6.97;;;;;;;-141.97;75.62;47565.22;5032704;28;20678;-85
2022/09/30 02:31:07;;;;;;;10.33;7.37;;;;;;;-141.97;75.75;47522.91;5037603;28;20170;-84
2022/09/30 02:33:40;;;;;;;9.17;6.70;;;;;;;-141.97;75.87;47405.69;5038897;28;20665;-84
2022/09/30 02:36:15;;;;;;;9.83;7.10;;;;;;;-141.97;75.79;47480.63;5034333;28;20264;-85
2022/09/30 02:38:45;;;;;;;22.33;14.37;;;;;;;-141.97;75.77;47607.50;5037396;28;20177;-87
2022/09/30 02:41:20;;;;;;;20.97;14.33;;;;;;;-141.97;75.91;47563.28;5034925;28;20638;-85
2022/09/30 02:43:46;;;;;;;15.93;11.20;;;;;;;-141.97;75.47;47580.59;5019351;28;20178;-85
2022/09/30 02:46:14;;;;;;;12.37;7.90;;;;;;;-141.97;75.67;47559.44;5040461;28;20631;-85
2022/09/30 02:48:53;;;;;;;9.73;6.97;;;;;;;-141.97;76.05;47569.06;5019503;28;20202;-85
2022/09/30 02:51:22;;;;;;;11.13;7.50;;;;;;;-141.97;75.89;47563.28;5037337;28;20167;-84
2022/09/30 02:54:14;;;;;;;13.13;7.30;;;;;;;-141.97;76.77;47584.44;5037686;28;20220;-85
2022/09/30 02:57:03;;;;;;;9.80;7.23;;;;;;;-141.97;76.94;47546.00;5036313;28;20216;-85
2022/09/30 02:59:28;;;;;;;8.87;6.70;;;;;;;-141.97;77.22;47551.75;5036416;28;20253;-84
2022/09/30 03:01:55;;;;;;;8.83;7.27;;;;;;;-141.97;79.18;47542.16;5038461;28;20201;-85
2022/09/30 03:04:33;;;;;;;11.13;7.63;;;;;;;-141.97;81.25;47557.53;5036642;28;20162;-86
2022/09/30 03:06:59;;;;;;;9.03;6.83;;;;;;;-141.97;82.05;47590.19;5038249;28;20197;-84
2022/09/30 03:09:25;;;;;;;10.17;7.20;;;;;;;-141.97;81.43;47592.13;5038789;28;20233;-83
2022/09/30 03:11:57;;;;;;;11.80;8.30;;;;;;;-141.97;80.83;47534.44;5043030;28;20626;-83
2022/09/30 03:14:49;;;;;;;10.77;7.83;;;;;;;-141.97;80.04;47553.69;5046196;28;20249;-86
2022/09/30 03:17:32;;;;;;;12.30;7.60;;;;;;;-141.97;80.07;47584.44;5044617;28;20230;-84
2022/09/30 03:20:23;;;;;;;11.50;7.97;;;;;;;-141.97;80.36;47534.44;5041217;28;20249;-85
2022/09/30 03:23:07;;;;;;;11.50;7.43;;;;;;;-141.97;80.53;47547.91;5047318;28;20162;-85
2022/09/30 03:26:05;;;;;;;13.57;8.00;;;;;;;-141.97;80.73;47553.69;5036619;28;20162;-85
2022/09/30 03:28:55;;;;;;;14.87;8.70;;;;;;;-141.97;80.68;47542.16;4936987;29;20221;-85
2022/09/30 03:31:52;;;;;;;15.23;8.70;;;;;;;-141.97;80.92;47592.13;4899187;29;20672;-85
2022/09/30 03:34:27;;;;;;;16.17;9.57;;;;;;;-141.97;80.79;47572.91;4898116;29;20209;-86
2022/09/30 03:37:13;;;;;;;17.57;9.43;;;;;;;-141.97;80.71;47653.63;4898402;29;20679;-85
2022/09/30 03:39:58;;;;;;;15.17;8.77;;;;;;;-141.97;80.89;47594.03;4897580;29;20202;-86
2022/09/30 03:42:34;;;;;;;12.77;9.03;;;;;;;-141.97;80.81;47509.47;4898792;29;20274;-86
2022/09/30 03:45:38;;;;;;;16.23;8.70;;;;;;;-141.97;81.54;47570.97;4883085;29;20784;-86
2022/09/30 03:48:08;;;;;;;21.03;9.37;;;;;;;-141.97;82.64;47569.06;4871615;29;20211;-86
2022/09/30 03:50:36;;;;;;;20.57;8.60;;;;;;;-141.97;82.89;47553.69;4879841;29;20670;-87
2022/09/30 03:53:03;;;;;;;13.93;9.00;;;;;;;-141.97;84.46;47542.16;4880512;29;20223;-86
2022/09/30 03:55:32;;;;;;;18.23;9.27;;;;;;;-141.97;84.01;47563.28;4882000;29;20187;-86
2022/09/30 03:57:57;;;;;;;18.30;9.17;;;;;;;-141.97;83.91;47574.81;4864835;29;20530;-86
2022/09/30 04:00:23;;;;;;;13.97;8.40;;;;;;;-141.97;83.97;47563.28;4879814;29;20269;-86
2022/09/30 04:02:48;;;;;;;13.23;8.53;;;;;;;-141.97;83.92;47597.88;4878288;29;20268;-86
2022/09/30 04:05:14;;;;;;;15.87;9.20;;;;;;;-141.97;84.31;47694.00;4894184;29;20194;-86
2022/09/30 04:07:39;;;;;;;18.00;9.70;;;;;;;-141.97;83.92;47701.69;4927122;28;20250;-86
2022/09/30 04:10:05;;;;;;;19.90;9.00;;;;;;;-141.97;83.53;47584.44;4978166;28;20617;-85
2022/09/30 04:12:31;;;;;;;21.50;13.77;;;;;;;-141.97;83.37;47574.81;4995835;28;20183;-85
2022/09/30 04:14:56;;;;;;;20.90;11.70;;;;;;;-141.97;83.07;47549.84;4994972;28;20171;-85
2022/09/30 04:17:21;;;;;;;24.13;13.13;;;;;;;-141.97;83.37;47390.31;4981566;28;20226;-86
2022/09/30 04:19:47;;;;;;;24.43;13.00;;;;;;;-141.97;83.39;47569.06;4995854;28;20183;-85
2022/09/30 04:22:13;;;;;;;22.20;12.77;;;;;;;-141.97;83.31;47534.44;4997223;28;20194;-86
2022/09/30 04:24:38;;;;;;;18.10;10.90;;;;;;;-141.97;83.08;47611.34;5024767;28;20700;-86
2022/09/30 04:27:03;;;;;;;15.57;9.60;;;;;;;-141.97;83.68;47449.88;5039315;28;20217;-84
2022/09/30 04:29:29;;;;;;;14.97;9.07;;;;;;;-141.97;85.67;47603.66;5034833;28;20248;-86
2022/09/30 04:31:55;;;;;;;17.97;9.23;;;;;;;-141.97;85.27;47521.00;5036407;28;20174;-86
2022/09/30 04:34:20;;;;;;;15.00;9.43;;;;;;;-141.97;85.19;47676.69;5034798;28;20173;-86
2022/09/30 04:36:46;;;;;;;13.40;8.73;;;;;;;-141.97;84.64;47522.91;5017022;28;20165;-85
2022/09/30 04:39:11;;;;;;;12.70;9.10;;;;;;;-141.97;84.68;47601.72;5035070;28;20174;-86
2022/09/30 04:41:37;;;;;;;15.60;8.50;;;;;;;-141.97;85.32;47557.53;5018024;28;20170;-85
2022/09/30 04:44:05;;;;;;;14.30;8.57;;;;;;;-141.97;85.05;47672.84;5017485;28;20174;-86
2022/09/30 04:46:31;;;;;;;16.40;9.20;;;;;;;-141.97;84.35;47611.34;5035866;28;20645;-85
2022/09/30 04:48:57;;;;;;;13.17;8.30;;;;;;;-141.97;84.08;47446.03;5034812;28;20244;-85
2022/09/30 04:51:22;;;;;;;15.37;8.90;;;;;;;-141.97;84.02;47724.75;5034759;28;20173;-85
2022/09/30 04:53:48;;;;;;;16.63;9.00;;;;;;;-141.97;83.57;47442.19;5016715;28;20165;-86
2022/09/30 04:56:15;;;;;;;16.10;8.53;;;;;;;-141.97;82.70;47557.53;5034609;28;20517;-86
2022/09/30 04:58:41;;;;;;;15.33;8.73;;;;;;;-141.97;82.47;47446.03;5034800;28;20522;-84
2022/09/30 05:01:12;;;;;;;22.27;11.67;;;;;;;-141.97;82.20;47622.88;5034578;28;20698;-86
2022/09/30 05:03:39;;;;;;;33.30;20.70;;;;;;;-141.97;81.83;47546.00;5033847;28;20169;-86
2022/09/30 05:06:05;;;;;;;37.80;19.47;;;;;;;-141.97;81.44;47607.50;5035589;28;20166;-85
2022/09/30 05:08:32;;;;;;;36.03;22.87;;;;;;;-141.97;81.56;47392.22;5034880;28;20194;-86
2022/09/30 05:11:09;;;;;;;31.33;18.83;;;;;;;-141.97;81.16;47595.97;5039877;28;20154;-85
2022/09/30 05:13:37;;;;;;;27.57;12.80;;;;;;;-141.97;80.93;47607.50;5036317;28;20552;-84
2022/09/30 05:16:04;;;;;;;14.27;8.80;;;;;;;-141.97;80.45;47601.72;5017032;28;20169;-83
2022/09/30 05:18:30;;;;;;;14.30;8.63;;;;;;;-141.97;79.79;47563.28;5016624;28;20230;-83
2022/09/30 05:20:57;;;;;;;15.23;8.87;;;;;;;-141.97;79.74;47544.06;5007898;28;20238;-84
2022/09/30 05:23:24;;;;;;;17.70;8.83;;;;;;;-141.97;79.16;47765.09;5027839;28;20181;-84
2022/09/30 05:25:50;;;;;;;15.77;9.17;;;;;;;-141.97;79.32;47590.19;5020602;28;20229;-84
2022/09/30 05:28:16;;;;;;;12.93;8.70;;;;;;;-141.97;79.00;47599.81;5033972;28;20212;-83
2022/09/30 05:30:42;;;;;;;16.13;9.30;;;;;;;-141.97;78.84;47603.66;5032496;28;20261;-83
2022/09/30 05:33:09;;;;;;;18.27;10.60;;;;;;;-141.97;78.52;47599.81;5032484;28;20177;-85
2022/09/30 05:35:35;;;;;;;15.57;10.27;;;;;;;-141.97;78.45;47611.34;5034951;28;20247;-84
2022/09/30 05:38:02;;;;;;;18.17;10.20;;;;;;;-141.97;78.54;47594.03;5038162;28;20197;-83
2022/09/30 05:40:27;;;;;;;15.93;10.23;;;;;;;-141.97;77.70;47440.28;5034548;28;20276;-84
2022/09/30 05:42:56;;;;;;;17.23;9.87;;;;;;;-141.97;77.53;47565.22;5014562;28;20655;-84
2022/09/30 05:45:21;;;;;;;20.37;9.93;;;;;;;-141.97;77.68;47572.91;5014664;28;20187;-84
2022/09/30 05:47:53;;;;;;;18.00;9.20;;;;;;;-141.97;77.07;47565.22;5015080;28;20206;-87
2022/09/30 05:50:20;;;;;;;13.73;9.00;;;;;;;-141.97;76.94;47488.31;5018467;28;20213;-88
2022/09/30 05:52:45;;;;;;;16.77;8.37;;;;;;;-141.97;76.09;47496.00;4997942;28;20643;-88
2022/09/30 05:55:11;;;;;;;11.70;8.10;;;;;;;-141.97;75.74;47655.53;5013036;28;20241;-88
2022/09/30 05:57:37;;;;;;;11.83;8.07;;;;;;;-141.97;75.67;47582.50;5013452;28;20215;-89
2022/09/30 06:00:03;;;;;;;16.23;8.90;;;;;;;-141.97;75.09;47413.38;4995733;28;20702;-89
2022/09/30 06:02:29;;;;;;;13.73;8.77;;;;;;;-141.97;75.45;47426.81;5013471;28;20187;-89
2022/09/30 06:04:54;;;;;;;10.53;8.00;;;;;;;-141.97;74.95;47411.44;4998157;28;20178;-89
2022/09/30 06:07:20;;;;;;;15.07;8.83;;;;;;;-141.97;74.86;47780.47;5016713;28;20199;-90
2022/09/30 06:09:45;;;;;;;15.10;8.90;;;;;;;-141.97;74.36;47580.59;4998243;28;20681;-89
2022/09/30 06:12:11;;;;;;;14.33;9.20;;;;;;;-141.97;74.45;47686.31;5000098;28;20187;-88
2022/09/30 06:14:36;;;;;;;11.90;9.33;;;;;;;-141.97;74.00;47753.56;5007516;28;20727;-88
2022/09/30 06:17:02;;;;;;;13.60;9.17;;;;;;;-141.97;73.28;47488.31;5018603;28;20233;-88
2022/09/30 06:19:29;;;;;;;21.50;9.57;;;;;;;-141.97;73.42;47699.75;5009810;28;20613;-88
2022/09/30 06:21:55;;;;;;;15.53;9.33;;;;;;;-141.97;74.19;47421.06;5012563;28;20668;-89
2022/09/30 06:24:20;;;;;;;17.17;10.87;;;;;;;-141.97;76.57;47496.00;4981270;28;20574;-89
2022/09/30 06:26:46;;;;;;;17.77;10.10;;;;;;;-141.97;76.05;47742.03;4979429;28;20207;-88
2022/09/30 06:29:12;;;;;;;14.10;9.93;;;;;;;-141.97;73.76;47565.22;4980215;28;20183;-90
2022/09/30 06:31:37;;;;;;;13.73;9.30;;;;;;;-141.97;72.82;47749.72;4979825;28;20261;-89
2022/09/30 06:34:04;;;;;;;12.37;9.17;;;;;;;-141.97;71.57;47484.47;4979600;28;20206;-89
2022/09/30 06:36:30;;;;;;;12.13;8.80;;;;;;;-141.97;71.25;47745.88;4981008;28;20198;-89
2022/09/30 06:38:56;;;;;;;13.60;9.17;;;;;;;-141.97;72.78;47594.03;5003743;28;20207;-88
2022/09/30 06:41:48;;;;;;;14.70;9.03;;;;;;;-141.97;71.85;47557.53;4987674;28;20239;-91
2022/09/30 06:44:14;;;;;;;14.47;8.67;;;;;;;-141.97;71.11;47465.25;4981130;28;20206;-91
2022/09/30 06:46:39;;;;;;;15.70;8.50;;;;;;;-141.97;70.07;47517.16;4986438;28;20182;-89
2022/09/30 06:49:06;;;;;;;19.47;8.67;;;;;;;-141.97;68.79;47547.91;5002643;28;20219;-90
2022/09/30 06:51:32;;;;;;;12.87;8.43;;;;;;;-141.97;67.35;47540.22;4982528;28;20258;-88
2022/09/30 06:53:58;;;;;;;17.63;8.47;;;;;;;-141.97;67.16;47380.69;4980098;28;20966;-89
2022/09/30 06:56:23;;;;;;;19.27;8.40;;;;;;;-141.97;67.43;47557.53;4978910;28;20274;-90
2022/09/30 06:58:49;;;;;;;17.03;8.30;;;;;;;-141.97;66.11;47401.84;4978631;28;20313;-90
2022/09/30 07:01:15;;;;;;;21.33;8.57;;;;;;;-141.97;65.19;47451.81;4992478;28;20186;-89
2022/09/30 07:03:44;;;;;;;21.00;9.57;;;;;;;-141.97;64.40;47409.53;4998610;28;20220;-92
2022/09/30 07:06:12;;;;;;;10.10;7.10;;;;;;;-141.97;62.67;47486.41;4998232;28;20190;-90
2022/09/30 07:08:38;;;;;;;10.57;6.83;;;;;;;-141.97;62.40;47334.56;4997522;28;20213;-91
2022/09/30 07:11:16;;;;;;;12.03;8.00;;;;;;;-141.97;62.75;47670.91;4998052;28;20294;-90
2022/09/30 07:13:44;;;;;;;8.53;5.77;;;;;;;-141.97;63.46;47561.38;5013976;28;20186;-91
2022/09/30 07:16:10;;;;;;;7.03;5.93;;;;;;;-141.97;63.14;47534.44;5015842;28;20190;-91
2022/09/30 07:18:37;;;;;;;7.20;5.63;;;;;;;-141.97;63.21;47465.25;5016103;28;20683;-89
2022/09/30 07:21:04;;;;;;;10.30;5.60;;;;;;;-141.97;61.37;47503.69;4997309;28;20242;-90
2022/09/30 07:23:31;;;;;;;7.37;5.43;;;;;;;-141.97;60.34;47549.84;5014109;28;20209;-90
2022/09/30 07:26:03;;;;;;;8.70;5.93;;;;;;;-141.97;59.45;47486.41;4997415;28;20195;-90
2022/09/30 07:28:32;;;;;;;8.37;5.23;;;;;;;-141.97;58.59;47507.53;4999892;28;20244;-90
2022/09/30 07:30:59;;;;;;;7.77;5.27;;;;;;;-141.97;58.45;47430.66;5018934;28;20186;-89
2022/09/30 07:33:30;;;;;;;7.60;5.57;;;;;;;-141.97;58.50;47542.16;5005476;28;20785;-89
2022/09/30 07:35:57;;;;;;;6.93;5.00;;;;;;;-141.97;58.42;47524.84;5002697;28;20190;-90
2022/09/30 07:38:25;;;;;;;9.73;5.30;;;;;;;-141.97;58.13;47607.50;5003433;28;20191;-88
2022/09/30 07:40:52;;;;;;;9.50;5.73;;;;;;;-141.97;58.99;47526.75;5021163;28;20191;-89
2022/09/30 07:43:18;;;;;;;6.67;5.00;;;;;;;-141.97;58.21;47530.59;5027531;28;20178;-89
2022/09/30 07:45:47;;;;;;;7.40;4.90;;;;;;;-141.97;56.96;47513.31;5027315;28;20250;-88
2022/09/30 07:51:02;;;;;;;8.93;5.13;;;;;;;-141.97;56.32;47447.97;5007663;28;20229;-89
2022/09/30 07:53:57;;;;;;;8.67;4.90;;;;;;;-141.97;55.79;47492.16;4979175;28;20231;-90
2022/09/30 07:56:48;;;;;;;12.53;5.83;;;;;;;-141.97;55.87;47695.91;4947326;29;20248;-90
2022/09/30 07:59:14;;;;;;;9.17;5.63;;;;;;;-141.97;55.09;47403.75;4930057;29;20205;-88
2022/09/30 08:01:40;;;;;;;7.67;5.63;;;;;;;-141.97;53.87;47465.25;4922543;29;20292;-90
2022/09/30 08:04:07;;;;;;;9.33;5.90;;;;;;;-141.97;55.84;47494.09;4901681;29;20210;-90
2022/09/30 08:06:38;;;;;;;8.97;6.13;;;;;;;-141.97;54.28;47434.50;4912030;29;20292;-90
2022/09/30 08:09:04;;;;;;;12.23;5.57;;;;;;;-141.97;53.72;47482.56;4924806;29;20223;-90
2022/09/30 08:11:33;;;;;;;10.20;5.97;;;;;;;-141.97;53.72;47469.09;4893025;29;20699;-91
2022/09/30 08:13:58;;;;;;;8.33;5.03;;;;;;;-141.97;52.22;47438.34;4887967;29;20195;-90
2022/09/30 08:16:25;;;;;;;7.20;5.00;;;;;;;-141.97;51.60;47430.66;4913820;29;20205;-90
2022/09/30 08:19:01;;;;;;;8.70;4.97;;;;;;;-141.97;52.40;47503.69;4925188;29;20625;-91
2022/09/30 08:21:27;;;;;;;10.07;5.40;;;;;;;-141.97;51.42;47463.34;4926988;29;20241;-90
2022/09/30 08:23:53;;;;;;;7.10;5.00;;;;;;;-141.97;50.70;47653.63;4933925;29;20201;-91
2022/09/30 08:26:19;;;;;;;8.17;5.00;;;;;;;-141.97;50.70;47415.28;4948181;29;20197;-89
2022/09/30 08:28:48;;;;;;;7.23;4.97;;;;;;;-141.97;51.12;47480.63;4978258;28;20208;-90
2022/09/30 08:31:17;;;;;;;7.73;5.27;;;;;;;-141.97;52.29;47471.03;4993815;28;20666;-90
2022/09/30 08:33:43;;;;;;;10.90;5.10;;;;;;;-141.97;51.02;47471.03;5020567;28;20190;-91
2022/09/30 08:36:15;;;;;;;11.07;4.97;;;;;;;-141.97;51.85;47509.47;5001474;28;20189;-90
2022/09/30 08:38:40;;;;;;;8.77;5.10;;;;;;;-141.97;49.80;47438.34;5017919;28;20204;-91
2022/09/30 08:41:21;;;;;;;7.93;5.20;;;;;;;-141.97;48.90;47444.13;5015762;28;20246;-90
2022/09/30 08:44:11;;;;;;;8.00;5.10;;;;;;;-141.97;48.93;47430.66;5017525;28;20190;-92
2022/09/30 08:46:56;;;;;;;6.50;4.90;;;;;;;-141.97;48.70;47288.44;5033626;28;20206;-90
2022/09/30 08:49:35;;;;;;;7.00;4.70;;;;;;;-141.97;47.77;47324.97;5011868;28;20190;-91
2022/09/30 08:52:04;;;;;;;13.20;5.40;;;;;;;-141.97;46.47;47265.38;5043079;28;20185;-90
2022/09/30 08:54:33;;;;;;;8.98;4.78;;;;;;;-141.97;45.45;47415.28;5030316;28;20198;-90
2022/09/30 08:57:02;;;;;;;7.68;5.07;;;;;;;-141.97;45.38;47342.25;5021800;28;20196;-91
2022/09/30 08:59:43;;;;;;;7.90;5.10;;;;;;;-141.97;44.82;47522.91;5019777;28;20189;-91
2022/09/30 09:02:08;;;;;;;9.25;5.40;;;;;;;-141.97;44.88;47434.50;5038436;28;20665;-92
2022/09/30 09:04:34;;;;;;;6.22;4.85;;;;;;;-141.97;44.47;47346.09;5036802;28;20194;-91
2022/09/30 09:07:17;;;;;;;8.93;4.60;;;;;;;-141.97;44.60;47378.78;5021480;28;20198;-91
2022/09/30 09:09:42;;;;;;;8.88;5.43;;;;;;;-141.97;45.01;47415.28;5017753;28;20209;-94
2022/09/30 09:12:23;;;;;;;8.07;5.07;;;;;;;-141.97;44.06;47415.28;5016568;28;20271;-91
2022/09/30 09:14:59;;;;;;;7.38;4.88;;;;;;;-141.97;43.73;47638.25;5000329;28;20189;-91
2022/09/30 09:17:32;;;;;;;7.35;4.78;;;;;;;-141.97;42.55;47384.53;5016742;28;20231;-90
2022/09/30 09:20:35;;;;;;;9.77;4.60;;;;;;;-141.97;42.54;47238.47;4988596;28;20227;-90
2022/09/30 09:23:12;;;;;;;7.68;4.90;;;;;;;-141.97;42.97;47340.34;4920437;29;20220;-91
2022/09/30 09:25:38;;;;;;;9.38;5.10;;;;;;;-141.97;42.86;47594.03;4920281;29;20287;-90
2022/09/30 09:28:19;;;;;;;6.72;4.65;;;;;;;-141.97;44.04;47628.63;4921064;29;20919;-90
2022/09/30 09:30:53;;;;;;;6.00;4.93;;;;;;;-141.97;43.45;47411.44;4921063;29;20223;-90
2022/09/30 09:33:24;;;;;;;8.18;5.00;;;;;;;-141.97;43.04;47422.97;4936218;29;20288;-91
2022/09/30 09:36:06;;;;;;;6.35;4.80;;;;;;;-141.97;42.55;47365.31;4921298;29;20197;-90
2022/09/30 09:39:06;;;;;;;7.07;4.75;;;;;;;-141.97;42.36;47442.19;4940518;29;20198;-90
2022/09/30 09:41:50;;;;;;;7.10;4.53;;;;;;;-141.97;40.58;47403.75;4920601;29;20277;-88
2022/09/30 09:44:30;;;;;;;8.45;4.78;;;;;;;-141.97;40.76;47309.59;4941564;29;20192;-88
2022/09/30 09:47:14;;;;;;;8.70;4.70;;;;;;;-141.97;40.90;47446.03;4936110;29;20219;-90
2022/09/30 09:49:43;;;;;;;7.82;4.50;;;;;;;-141.97;41.30;47576.75;4919978;29;20675;-89
2022/09/30 09:52:11;;;;;;;6.70;4.60;;;;;;;-141.97;40.81;47434.50;4936893;29;20742;-90
2022/09/30 09:54:43;;;;;;;7.90;4.70;;;;;;;-141.97;40.72;47401.84;4937813;29;20207;-89
2022/09/30 09:57:23;;;;;;;6.68;4.70;;;;;;;-141.97;40.24;47311.50;4922338;29;20191;-90
2022/09/30 10:03:05;;;;;;;9.40;4.80;;;;;;;-141.97;39.17;47386.47;5019198;28;20200;-90
2022/09/30 10:05:41;;;;;;;6.97;4.82;;;;;;;-141.97;38.81;47434.50;5018011;28;20191;-90
2022/09/30 10:08:21;;;;;;;12.18;5.13;;;;;;;-141.97;38.69;47407.59;5007792;28;20594;-90
2022/09/30 10:11:20;;;;;;;7.40;4.47;;;;;;;-141.97;39.24;47357.63;5010163;28;20251;-90
2022/09/30 10:13:46;;;;;;;8.50;4.72;;;;;;;-141.97;39.38;47119.31;4943039;29;20680;-91
2022/09/30 10:16:30;;;;;;;6.63;4.43;;;;;;;-141.97;39.41;47407.59;4925778;29;20241;-90
2022/09/30 10:18:57;;;;;;;5.47;4.68;;;;;;;-141.97;39.16;47303.81;4964233;29;20196;-88
2022/09/30 10:21:26;;;;;;;5.45;4.38;;;;;;;-141.97;39.29;47323.03;4937540;29;20717;-90
2022/09/30 10:23:51;;;;;;;5.60;4.50;;;;;;;-141.97;38.53;47361.47;4957809;29;20280;-90
2022/09/30 10:26:23;;;;;;;8.95;4.97;;;;;;;-141.97;39.17;47326.88;4940244;29;20223;-91
2022/09/30 10:28:57;;;;;;;7.60;4.70;;;;;;;-141.97;39.60;47369.16;4939803;29;20216;-92
2022/09/30 10:31:37;;;;;;;6.50;5.00;;;;;;;-141.97;38.62;47378.78;4955877;29;20192;-90
2022/09/30 10:34:21;;;;;;;7.15;5.22;;;;;;;-141.97;37.93;47407.59;4939807;29;20188;-89
2022/09/30 10:36:47;;;;;;;6.30;4.57;;;;;;;-141.97;37.86;47357.63;4954757;28;20300;-90
2022/09/30 10:39:22;;;;;;;6.72;4.90;;;;;;;-141.97;37.74;47338.41;4956110;29;20188;-89
2022/09/30 10:41:50;;;;;;;9.05;5.00;;;;;;;-141.97;37.48;47476.78;4956277;28;20274;-90
2022/09/30 10:44:21;;;;;;;7.78;4.35;;;;;;;-141.97;37.39;47211.56;4954662;29;20287;-90
2022/09/30 10:46:52;;;;;;;6.97;4.70;;;;;;;-141.97;37.27;47077.03;4953930;29;20223;-89
2022/09/30 10:49:35;;;;;;;9.07;4.60;;;;;;;-141.97;38.08;47373.00;4938222;28;20387;-88
2022/09/30 10:52:01;;;;;;;5.28;4.65;;;;;;;-141.97;37.73;47396.06;4998426;28;20193;-88
2022/09/30 10:54:49;;;;;;;6.18;4.57;;;;;;;-141.97;37.18;47407.59;4998855;28;20959;-87
2022/09/30 10:57:21;;;;;;;9.07;4.45;;;;;;;-141.97;37.68;47330.72;5001790;28;20252;-89
2022/09/30 10:59:47;;;;;;;9.05;5.00;;;;;;;-141.97;37.97;47653.63;4996247;28;20185;-89
2022/09/30 11:02:29;;;;;;;8.00;5.07;;;;;;;-141.97;37.66;47376.84;5017786;28;20672;-89
2022/09/30 11:05:09;;;;;;;6.75;5.20;;;;;;;-141.97;38.05;47367.25;5001472;28;20185;-87
2022/09/30 11:07:47;;;;;;;5.72;4.88;;;;;;;-141.97;37.67;47361.47;5004557;28;20233;-89
2022/09/30 11:10:55;;;;;;;6.20;4.70;;;;;;;-141.97;37.12;47419.13;5022427;28;20207;-88
2022/09/30 11:13:55;;;;;;;7.18;4.68;;;;;;;-141.97;37.51;47365.31;5021226;28;20184;-88
2022/09/30 11:16:48;;;;;;;6.22;5.05;;;;;;;-141.97;37.33;47374.94;5018886;28;20199;-88
2022/09/30 11:19:27;;;;;;;6.82;4.75;;;;;;;-141.97;37.90;47342.25;5010741;28;20174;-87
2022/09/30 11:22:33;;;;;;;13.80;4.85;;;;;;;-141.97;37.69;47407.59;5010491;28;20226;-88
2022/09/30 11:24:59;;;;;;;7.90;4.80;;;;;;;-141.97;37.53;47328.81;5022017;28;20190;-87
2022/09/30 11:27:33;;;;;;;5.85;4.57;;;;;;;-141.97;38.14;47374.94;5019552;28;20342;-87
2022/09/30 11:30:17;;;;;;;8.77;4.75;;;;;;;-141.97;38.04;47371.09;5004005;28;20203;-87
2022/09/30 11:33:17;;;;;;;6.13;4.30;;;;;;;-141.97;37.92;47394.16;5024145;28;20191;-88
2022/09/30 11:36:04;;;;;;;7.25;4.57;;;;;;;-141.97;37.28;47661.31;5017892;28;20282;-87
2022/09/30 11:38:45;;;;;;;6.78;4.45;;;;;;;-141.97;37.57;47401.84;5038330;28;20658;-87
2022/09/30 11:41:35;;;;;;;8.90;4.50;;;;;;;-141.97;37.42;47394.16;5003115;28;20255;-87
2022/09/30 11:44:31;;;;;;;5.25;4.57;;;;;;;-141.97;36.74;47371.09;5001543;28;20193;-87